Axtell, NE

6:45 PM CDT on August 31, 2016 (GMT -0500)
Axtell, NE | | Change Station

Elev 2234 ft 40.48 °N, 99.08 °W | Updated 31 seconds ago

Clear
Clear
77.0 °F
Feels Like 76 °F
N
7.4
Wind Variable Wind from ENE
Gusts 9.8 mph

Today
High -- | Low -- °F
--% Chance of Precip.
Yesterday
High -- | Low -- °F
Precip. -- in
Pressure 30.17 in
Visibility 10.0 miles
Clouds Clear
Heat Index 76 °F
Dew Point 16 °F
Humidity 10%
Rainfall 0.05 in
Snow Depth Not available.
7:03 AM 8:09 PM
Waning Crescent, 0% visible
METAR KHDE 312335Z AUTO 10006KT 10SM CLR 25/17 A3017 RMK AO2 T02500166
Pressure 30.17 in
Visibility 10.0 miles
Clouds Clear
Heat Index 76 °F
Dew Point 16 °F
Humidity 10%
Rainfall 0.05 in
Snow Depth Not available.
7:03 AM 8:09 PM
Waning Crescent, 0% visible
METAR KHDE 312335Z AUTO 10006KT 10SM CLR 25/17 A3017 RMK AO2 T02500166

10-Day Weather Forecast

Almanac

Astronomy

Aug. 31, 2016 Rise Set
Actual Time
Civil Twilight
Nautical Twilight
Astronomical Twilight
Moon
Length of Visible Light
Length of Day
Tomorrow will be .
, % of the Moon is Illuminated

Today's Extremes

State Highs State Lows

Community

WunderPhotos

Upload Photos

1,936,215 photos uploaded!

WunderBlog® & News

Nearby

Air Quality

  Air Quality AQ Index Pollutant
Not available.

Snow Depth

Station Depth Elevation

Earthquake Activity

City Distance Mag. Time & Date
Minimum magnitude displayed is 2.5.

Coastal Water Temperatures

Place Temperature

Stations

Nearby Weather Stations

Station Location Temp. Windchill Dew Point Humidity Wind Precip. Elev Updated Type
                   

Watches & Warnings

There are currently no watches in effect.